Annapolis, Maryland
Current Conditions -  °F | °C
As of 8:54 AM on Thursday 23 Oct 2014 (Local Time) from KNAK Reporting Station
Broken Clouds Broken Clouds  
Wind Chill: 55°   Ceiling: 4500
Heat Index: 55°   Visibility: 10mi
Dew Point: 44°   Wind: 10mph
Humidity: 67%   Direction: 300°WNW
Pressure: 29.85"   Gusts: NA
Location:  38.98°N, 76.49°W
Report Text: KNAK 231254Z AUTO 30009KT 10SM BKN045 13/07 A2985 RMK AO2 SLP110 T01280067
Loading
Personal Weather Stations






























Interactive Weather Map New forecast layout! Learn more

10-Day Weather Forecast

Advertisements
Track Severe Weather on mobile